createdAt,value
2023-04-18T00:00:43.682Z,88410.00
2023-04-18T00:01:43.783Z,88414.00
2023-04-18T00:02:43.795Z,88414.00
2023-04-18T00:03:43.970Z,88412.00
2023-04-18T00:04:43.954Z,88412.00
2023-04-18T00:05:43.822Z,88410.00
2023-04-18T00:06:43.836Z,88406.00
2023-04-18T00:07:43.862Z,88408.00
2023-04-18T00:08:43.894Z,88408.00
2023-04-18T00:09:43.934Z,88408.00
2023-04-18T00:10:43.937Z,88406.00
2023-04-18T00:11:43.969Z,88406.00
2023-04-18T00:12:43.986Z,88406.00
2023-04-18T00:13:43.964Z,88406.00
2023-04-18T00:14:43.986Z,88408.00
2023-04-18T00:15:43.949Z,88408.00
2023-04-18T00:16:43.995Z,88408.00
2023-04-18T00:17:43.996Z,88406.00
2023-04-18T00:18:43.911Z,88406.00
2023-04-18T00:19:43.918Z,88406.00
2023-04-18T00:20:43.905Z,88402.00
2023-04-18T00:21:43.881Z,88404.00
2023-04-18T00:22:43.927Z,88404.00
2023-04-18T00:23:43.879Z,88402.00
2023-04-18T00:24:43.863Z,88402.00
2023-04-18T00:25:43.854Z,88400.00
2023-04-18T00:26:43.882Z,88400.00
2023-04-18T00:27:43.831Z,88396.00
2023-04-18T00:28:43.865Z,88398.00
2023-04-18T00:29:43.894Z,88396.00
2023-04-18T00:30:43.957Z,88396.00
2023-04-18T00:31:43.938Z,88398.00
2023-04-18T00:32:43.998Z,88398.00
2023-04-18T00:33:44.003Z,88396.00
2023-04-18T00:34:44.017Z,88396.00
2023-04-18T00:35:44.048Z,88396.00
2023-04-18T00:36:44.100Z,88394.00
2023-04-18T00:37:44.116Z,88396.00
2023-04-18T00:38:44.154Z,88398.00
2023-04-18T00:39:44.195Z,88394.00
2023-04-18T00:40:44.229Z,88394.00
2023-04-18T00:41:44.236Z,88394.00
2023-04-18T00:42:44.276Z,88392.00
2023-04-18T00:43:44.297Z,88396.00
2023-04-18T00:44:44.335Z,88394.00
2023-04-18T00:45:44.414Z,88396.00
2023-04-18T00:46:44.398Z,88396.00
2023-04-18T00:47:44.510Z,88396.00
2023-04-18T00:48:44.448Z,88394.00
2023-04-18T00:49:44.441Z,88396.00
2023-04-18T00:50:44.443Z,88396.00
2023-04-18T00:51:44.428Z,88396.00
2023-04-18T00:52:44.414Z,88394.00
2023-04-18T00:53:44.410Z,88396.00
2023-04-18T00:54:44.402Z,88398.00
2023-04-18T00:55:44.410Z,88394.00
2023-04-18T00:56:44.374Z,88398.00
2023-04-18T00:57:44.358Z,88398.00
2023-04-18T00:58:44.355Z,88400.00
2023-04-18T00:59:44.356Z,88398.00
2023-04-18T01:00:44.332Z,88400.00
2023-04-18T01:01:44.365Z,88398.00
2023-04-18T01:02:44.404Z,88398.00
2023-04-18T01:03:44.503Z,88396.00
2023-04-18T01:04:44.353Z,88398.00
2023-04-18T01:05:44.376Z,88396.00
2023-04-18T01:06:44.403Z,88396.00
2023-04-18T01:07:44.416Z,88402.00
2023-04-18T01:08:44.447Z,88398.00
2023-04-18T01:09:44.466Z,88402.00
2023-04-18T01:10:44.514Z,88402.00
2023-04-18T01:11:44.521Z,88402.00
2023-04-18T01:12:44.553Z,88402.00
2023-04-18T01:13:44.595Z,88398.00
2023-04-18T01:14:44.622Z,88400.00
2023-04-18T01:15:44.688Z,88400.00
2023-04-18T01:16:44.698Z,88398.00
2023-04-18T01:17:44.761Z,88396.00
2023-04-18T01:18:44.733Z,88396.00
2023-04-18T01:19:44.800Z,88394.00
2023-04-18T01:20:44.808Z,88394.00
2023-04-18T01:21:44.826Z,88392.00
2023-04-18T01:22:44.874Z,88390.00
2023-04-18T01:23:44.905Z,88390.00
2023-04-18T01:24:44.916Z,88388.00
2023-04-18T01:25:44.952Z,88388.00
2023-04-18T01:26:44.977Z,88386.00
2023-04-18T01:27:45.017Z,88386.00
2023-04-18T01:28:45.046Z,88386.00
2023-04-18T01:29:45.092Z,88386.00
2023-04-18T01:30:45.126Z,88384.00
2023-04-18T01:31:45.155Z,88382.00
2023-04-18T01:32:45.220Z,88380.00
2023-04-18T01:33:45.204Z,88378.00
2023-04-18T01:34:45.226Z,88376.00
2023-04-18T01:35:45.273Z,88376.00
2023-04-18T01:36:45.439Z,88378.00
2023-04-18T01:37:45.330Z,88376.00
2023-04-18T01:38:45.384Z,88376.00
2023-04-18T01:39:45.381Z,88376.00
2023-04-18T01:40:45.423Z,88376.00
2023-04-18T01:41:45.452Z,88376.00
2023-04-18T01:42:45.489Z,88378.00
2023-04-18T01:43:45.504Z,88378.00
2023-04-18T01:44:45.535Z,88378.00
2023-04-18T01:45:45.582Z,88376.00
2023-04-18T01:46:45.642Z,88376.00
2023-04-18T01:47:45.658Z,88374.00
2023-04-18T01:48:45.688Z,88378.00
2023-04-18T01:49:45.721Z,88376.00
2023-04-18T01:50:45.742Z,88374.00
2023-04-18T01:51:45.778Z,88376.00
2023-04-18T01:52:45.914Z,88378.00
2023-04-18T01:53:45.847Z,88378.00
2023-04-18T01:54:45.868Z,88376.00
2023-04-18T01:55:46.327Z,88378.00
2023-04-18T01:56:45.921Z,88376.00
2023-04-18T01:57:45.955Z,88374.00
2023-04-18T01:58:45.986Z,88376.00
2023-04-18T01:59:46.016Z,88374.00
2023-04-18T02:00:46.137Z,88374.00
2023-04-18T02:01:46.136Z,88372.00
2023-04-18T02:02:46.330Z,88372.00
2023-04-18T02:03:46.295Z,88372.00
2023-04-18T02:04:46.220Z,88372.00
2023-04-18T02:05:46.256Z,88374.00
2023-04-18T02:06:46.270Z,88372.00
2023-04-18T02:07:46.326Z,88372.00
2023-04-18T02:08:46.351Z,88370.00
2023-04-18T02:09:46.361Z,88370.00
2023-04-18T02:10:46.443Z,88370.00
2023-04-18T02:11:46.546Z,88372.00
2023-04-18T02:12:46.494Z,88374.00
2023-04-18T02:13:46.602Z,88372.00
2023-04-18T02:14:46.543Z,88372.00
2023-04-18T02:15:46.574Z,88372.00
2023-04-18T02:16:46.653Z,88370.00
2023-04-18T02:17:46.702Z,88374.00
2023-04-18T02:18:46.717Z,88372.00
2023-04-18T02:19:46.768Z,88374.00
2023-04-18T02:20:46.804Z,88372.00
2023-04-18T02:21:46.831Z,88372.00
2023-04-18T02:22:46.817Z,88374.00
2023-04-18T02:23:46.816Z,88374.00
2023-04-18T02:24:46.867Z,88372.00
2023-04-18T02:25:46.879Z,88374.00
2023-04-18T02:26:46.966Z,88374.00
2023-04-18T02:27:46.939Z,88376.00
2023-04-18T02:28:46.982Z,88374.00
2023-04-18T02:29:47.001Z,88374.00
2023-04-18T02:30:47.068Z,88372.00
2023-04-18T02:31:47.108Z,88372.00
2023-04-18T02:32:47.121Z,88372.00
2023-04-18T02:33:47.119Z,88374.00
2023-04-18T02:34:47.144Z,88374.00
2023-04-18T02:35:47.169Z,88372.00
2023-04-18T02:36:47.211Z,88374.00
2023-04-18T02:37:47.194Z,88374.00
2023-04-18T02:38:47.165Z,88372.00
2023-04-18T02:39:47.157Z,88374.00
2023-04-18T02:40:47.129Z,88374.00
2023-04-18T02:41:47.117Z,88374.00
2023-04-18T02:42:47.104Z,88376.00
2023-04-18T02:43:47.092Z,88376.00
2023-04-18T02:44:47.087Z,88376.00
2023-04-18T02:45:47.093Z,88376.00
2023-04-18T02:46:47.042Z,88376.00
2023-04-18T02:47:54.599Z,88376.00
2023-04-18T02:48:48.023Z,88374.00
2023-04-18T02:49:46.991Z,88374.00
2023-04-18T02:50:46.997Z,88374.00
2023-04-18T02:51:46.978Z,88372.00
2023-04-18T02:52:46.955Z,88372.00
2023-04-18T02:53:46.934Z,88372.00
2023-04-18T02:54:46.921Z,88370.00
2023-04-18T02:55:46.906Z,88372.00
2023-04-18T02:56:46.898Z,88370.00
2023-04-18T02:57:46.876Z,88368.00
2023-04-18T02:58:46.872Z,88370.00
2023-04-18T02:59:46.862Z,88370.00
2023-04-18T03:00:46.930Z,88370.00
2023-04-18T03:01:46.930Z,88370.00
2023-04-18T03:02:47.079Z,88368.00
2023-04-18T03:03:46.977Z,88370.00
2023-04-18T03:04:47.032Z,88368.00
2023-04-18T03:05:47.017Z,88368.00
2023-04-18T03:06:47.063Z,88366.00
2023-04-18T03:07:47.065Z,88366.00
2023-04-18T03:08:47.102Z,88366.00
2023-04-18T03:09:47.127Z,88366.00
2023-04-18T03:10:47.168Z,88368.00
2023-04-18T03:11:47.202Z,88370.00
2023-04-18T03:12:47.236Z,88366.00
2023-04-18T03:13:47.251Z,88365.00
2023-04-18T03:14:47.300Z,88366.00
2023-04-18T03:15:47.343Z,88365.00
2023-04-18T03:16:47.359Z,88366.00
2023-04-18T03:17:47.419Z,88366.00
2023-04-18T03:18:47.423Z,88366.00
2023-04-18T03:19:47.385Z,88366.00
2023-04-18T03:20:47.387Z,88366.00
2023-04-18T03:21:47.381Z,88366.00
2023-04-18T03:22:47.355Z,88365.00
2023-04-18T03:23:47.347Z,88365.00
2023-04-18T03:24:47.333Z,88366.00
2023-04-18T03:25:47.335Z,88365.00
2023-04-18T03:26:47.305Z,88363.00
2023-04-18T03:27:47.290Z,88365.00
2023-04-18T03:28:47.329Z,88365.00
2023-04-18T03:29:47.264Z,88363.00
2023-04-18T03:30:47.264Z,88365.00
2023-04-18T03:31:47.311Z,88363.00
2023-04-18T03:32:47.261Z,88361.00
2023-04-18T03:33:47.225Z,88363.00
2023-04-18T03:34:47.215Z,88363.00
2023-04-18T03:35:47.212Z,88359.00
2023-04-18T03:36:48.138Z,88363.00
2023-04-18T03:37:47.165Z,88359.00
2023-04-18T03:38:47.170Z,88361.00
2023-04-18T03:39:47.152Z,88361.00
2023-04-18T03:40:47.139Z,88361.00
2023-04-18T03:41:47.147Z,88359.00
2023-04-18T03:42:47.139Z,88363.00
2023-04-18T03:43:47.118Z,88361.00
2023-04-18T03:44:47.098Z,88359.00
2023-04-18T03:45:47.235Z,88357.00
2023-04-18T03:46:47.180Z,88357.00
2023-04-18T03:47:47.247Z,88355.00
2023-04-18T03:48:47.219Z,88355.00
2023-04-18T03:49:47.254Z,88355.00
2023-04-18T03:50:47.307Z,88355.00
2023-04-18T03:51:47.312Z,88357.00
2023-04-18T03:52:47.352Z,88355.00
2023-04-18T03:53:47.342Z,88353.00
2023-04-18T03:54:47.326Z,88355.00
2023-04-18T03:55:47.331Z,88353.00
2023-04-18T03:56:47.335Z,88353.00
2023-04-18T03:57:47.301Z,88355.00
2023-04-18T03:58:47.296Z,88351.00
2023-04-18T03:59:47.929Z,88355.00
2023-04-18T04:00:47.265Z,88353.00
2023-04-18T04:01:47.286Z,88355.00
2023-04-18T04:02:47.324Z,88355.00
2023-04-18T04:03:47.453Z,88355.00
2023-04-18T04:04:47.322Z,88357.00
2023-04-18T04:05:47.232Z,88355.00
2023-04-18T04:06:47.229Z,88359.00
2023-04-18T04:07:47.269Z,88359.00
2023-04-18T04:08:47.273Z,88359.00
2023-04-18T04:09:47.347Z,88361.00
2023-04-18T04:10:47.335Z,88363.00
2023-04-18T04:11:47.378Z,88365.00
2023-04-18T04:12:47.409Z,88365.00
2023-04-18T04:13:47.443Z,88365.00
2023-04-18T04:14:47.478Z,88363.00
2023-04-18T04:15:47.528Z,88363.00
2023-04-18T04:16:47.660Z,88363.00
2023-04-18T04:17:47.611Z,88361.00
2023-04-18T04:18:47.589Z,88363.00
2023-04-18T04:19:47.623Z,88363.00
2023-04-18T04:20:47.663Z,88363.00
2023-04-18T04:21:47.670Z,88363.00
2023-04-18T04:22:47.705Z,88365.00
2023-04-18T04:23:47.737Z,88366.00
2023-04-18T04:24:47.770Z,88366.00
2023-04-18T04:25:47.799Z,88368.00
2023-04-18T04:26:47.816Z,88366.00
2023-04-18T04:27:47.806Z,88370.00
2023-04-18T04:28:47.813Z,88368.00
2023-04-18T04:29:47.788Z,88368.00
2023-04-18T04:30:47.776Z,88368.00
2023-04-18T04:31:47.813Z,88368.00
2023-04-18T04:32:48.061Z,88368.00
2023-04-18T04:33:47.772Z,88368.00
2023-04-18T04:34:47.752Z,88366.00
2023-04-18T04:35:47.765Z,88370.00
2023-04-18T04:36:47.717Z,88372.00
2023-04-18T04:37:47.720Z,88370.00
2023-04-18T04:38:47.717Z,88374.00
2023-04-18T04:39:47.706Z,88372.00
2023-04-18T04:40:47.682Z,88374.00
2023-04-18T04:41:47.688Z,88372.00
2023-04-18T04:42:47.728Z,88374.00
2023-04-18T04:43:47.737Z,88374.00
2023-04-18T04:44:47.854Z,88374.00
2023-04-18T04:45:47.735Z,88376.00
2023-04-18T04:46:47.705Z,88374.00
2023-04-18T04:47:47.750Z,88376.00
2023-04-18T04:48:47.670Z,88374.00
2023-04-18T04:49:47.669Z,88374.00
2023-04-18T04:50:47.653Z,88374.00
2023-04-18T04:51:47.645Z,88376.00
2023-04-18T04:52:47.639Z,88376.00
2023-04-18T04:53:47.610Z,88376.00
2023-04-18T04:54:47.608Z,88378.00
2023-04-18T04:55:47.616Z,88376.00
2023-04-18T04:56:47.582Z,88374.00
2023-04-18T04:57:47.589Z,88376.00
2023-04-18T04:58:47.582Z,88372.00
2023-04-18T04:59:47.580Z,88376.00
2023-04-18T05:00:47.614Z,88376.00
2023-04-18T05:01:47.652Z,88376.00
2023-04-18T05:02:47.812Z,88376.00
2023-04-18T05:03:47.845Z,88378.00
2023-04-18T05:04:47.787Z,88380.00
2023-04-18T05:05:47.783Z,88380.00
2023-04-18T05:06:47.773Z,88382.00
2023-04-18T05:07:47.808Z,88380.00
2023-04-18T05:08:47.847Z,88382.00
2023-04-18T05:09:47.875Z,88382.00
2023-04-18T05:10:47.922Z,88384.00
2023-04-18T05:11:47.912Z,88384.00
2023-04-18T05:12:47.950Z,88384.00
2023-04-18T05:13:47.959Z,88386.00
2023-04-18T05:14:47.991Z,88388.00
2023-04-18T05:15:48.024Z,88388.00
2023-04-18T05:16:48.042Z,88388.00
2023-04-18T05:17:48.004Z,88390.00
2023-04-18T05:18:47.950Z,88390.00
2023-04-18T05:19:47.958Z,88388.00
2023-04-18T05:20:47.932Z,88392.00
2023-04-18T05:21:47.924Z,88388.00
2023-04-18T05:22:47.919Z,88390.00
2023-04-18T05:23:47.905Z,88390.00
2023-04-18T05:24:47.899Z,88390.00
2023-04-18T05:25:47.884Z,88392.00
2023-04-18T05:26:47.871Z,88390.00
2023-04-18T05:27:47.879Z,88390.00
2023-04-18T05:28:47.846Z,88392.00
2023-04-18T05:29:47.874Z,88392.00
2023-04-18T05:30:47.870Z,88394.00
2023-04-18T05:31:47.831Z,88394.00
2023-04-18T05:32:47.895Z,88396.00
2023-04-18T05:33:47.832Z,88398.00
2023-04-18T05:34:47.804Z,88398.00
2023-04-18T05:35:47.806Z,88398.00
2023-04-18T05:36:47.777Z,88394.00
2023-04-18T05:37:47.781Z,88396.00
2023-04-18T05:38:47.793Z,88394.00
2023-04-18T05:39:47.756Z,88394.00
2023-04-18T05:40:47.749Z,88398.00
2023-04-18T05:41:47.774Z,88396.00
2023-04-18T05:42:47.743Z,88396.00
2023-04-18T05:43:54.504Z,88398.00
2023-04-18T05:44:48.717Z,88398.00
2023-04-18T05:45:47.723Z,88398.00
2023-04-18T05:46:47.795Z,88396.00
2023-04-18T05:47:47.725Z,88398.00
2023-04-18T05:48:47.670Z,88398.00
2023-04-18T05:49:47.669Z,88394.00
2023-04-18T05:50:47.702Z,88394.00
2023-04-18T05:51:47.691Z,88396.00
2023-04-18T05:52:47.663Z,88394.00
2023-04-18T05:53:47.673Z,88394.00
2023-04-18T05:54:47.616Z,88394.00
2023-04-18T05:55:47.610Z,88394.00
2023-04-18T05:56:47.616Z,88392.00
2023-04-18T05:57:47.584Z,88396.00
2023-04-18T05:58:47.582Z,88394.00
2023-04-18T05:59:47.607Z,88394.00
2023-04-18T06:00:47.552Z,88396.00
2023-04-18T06:01:47.555Z,88396.00
2023-04-18T06:02:47.664Z,88402.00
2023-04-18T06:03:47.694Z,88400.00
2023-04-18T06:04:47.627Z,88400.00
2023-04-18T06:05:47.519Z,88400.00
2023-04-18T06:06:47.461Z,88402.00
2023-04-18T06:07:47.454Z,88400.00
2023-04-18T06:08:47.480Z,88398.00
2023-04-18T06:09:47.468Z,88400.00
2023-04-18T06:10:47.395Z,88396.00
2023-04-18T06:11:47.436Z,88398.00
2023-04-18T06:12:47.371Z,88398.00
2023-04-18T06:13:47.353Z,88396.00
2023-04-18T06:14:47.336Z,88400.00
2023-04-18T06:15:47.338Z,88400.00
2023-04-18T06:16:47.301Z,88400.00
2023-04-18T06:17:47.386Z,88400.00
2023-04-18T06:18:47.284Z,88400.00
2023-04-18T06:19:47.275Z,88398.00
2023-04-18T06:20:47.276Z,88398.00
2023-04-18T06:21:47.257Z,88398.00
2023-04-18T06:22:47.234Z,88398.00
2023-04-18T06:23:47.224Z,88402.00
2023-04-18T06:24:47.205Z,88400.00
2023-04-18T06:25:47.183Z,88402.00
2023-04-18T06:26:47.180Z,88402.00
2023-04-18T06:27:47.159Z,88404.00
2023-04-18T06:28:47.151Z,88402.00
2023-04-18T06:29:47.135Z,88404.00
2023-04-18T06:30:47.140Z,88406.00
2023-04-18T06:31:47.148Z,88406.00
2023-04-18T06:32:47.118Z,88406.00
2023-04-18T06:33:47.094Z,88404.00
2023-04-18T06:34:47.063Z,88406.00
2023-04-18T06:35:47.042Z,88408.00
2023-04-18T06:36:47.034Z,88406.00
2023-04-18T06:37:47.012Z,88406.00
2023-04-18T06:38:47.057Z,88406.00
2023-04-18T06:39:47.154Z,88402.00
2023-04-18T06:40:46.990Z,88402.00
2023-04-18T06:41:46.986Z,88400.00
2023-04-18T06:42:46.953Z,88398.00
2023-04-18T06:44:02.092Z,88398.00
2023-04-18T06:44:47.942Z,88398.00
2023-04-18T06:45:46.994Z,88396.00
2023-04-18T06:46:46.865Z,88396.00
2023-04-18T06:47:46.994Z,88396.00
2023-04-18T06:48:46.878Z,88394.00
2023-04-18T06:49:46.898Z,88394.00
2023-04-18T06:50:46.808Z,88398.00
2023-04-18T06:51:47.070Z,88394.00
2023-04-18T06:52:46.801Z,88396.00
2023-04-18T06:53:46.761Z,88394.00
2023-04-18T06:54:46.754Z,88396.00
2023-04-18T06:55:46.775Z,88394.00
2023-04-18T06:56:46.812Z,88394.00
2023-04-18T06:57:46.718Z,88396.00
2023-04-18T06:58:46.712Z,88398.00
2023-04-18T06:59:46.726Z,88396.00
2023-04-18T07:00:46.776Z,88396.00
2023-04-18T07:01:46.760Z,88398.00
2023-04-18T07:02:46.886Z,88396.00
2023-04-18T07:03:47.037Z,88394.00
2023-04-18T07:04:47.066Z,88394.00
2023-04-18T07:05:46.868Z,88398.00
2023-04-18T07:06:46.918Z,88394.00
2023-04-18T07:07:46.880Z,88394.00
2023-04-18T07:08:46.885Z,88396.00
2023-04-18T07:09:46.889Z,88394.00
2023-04-18T07:10:46.900Z,88396.00
2023-04-18T07:11:46.942Z,88396.00
2023-04-18T07:12:46.947Z,88394.00
2023-04-18T07:13:46.931Z,88394.00
2023-04-18T07:14:47.006Z,88392.00
2023-04-18T07:15:46.958Z,88394.00
2023-04-18T07:16:47.002Z,88396.00
2023-04-18T07:17:47.045Z,88394.00
2023-04-18T07:18:46.999Z,88392.00
2023-04-18T07:19:47.050Z,88392.00
2023-04-18T07:20:46.983Z,88392.00
2023-04-18T07:21:46.970Z,88388.00
2023-04-18T07:22:46.949Z,88390.00
2023-04-18T07:23:46.952Z,88388.00
2023-04-18T07:24:46.914Z,88392.00
2023-04-18T07:25:47.001Z,88392.00
2023-04-18T07:26:46.979Z,88390.00
2023-04-18T07:27:46.981Z,88392.00
2023-04-18T07:28:46.857Z,88392.00
2023-04-18T07:29:46.868Z,88396.00
2023-04-18T07:30:46.869Z,88394.00
2023-04-18T07:31:46.799Z,88396.00
2023-04-18T07:32:46.852Z,88394.00
2023-04-18T07:33:46.799Z,88398.00
2023-04-18T07:34:46.773Z,88396.00
2023-04-18T07:35:46.728Z,88398.00
2023-04-18T07:36:46.744Z,88398.00
2023-04-18T07:37:46.697Z,88398.00
2023-04-18T07:38:46.849Z,88398.00
2023-04-18T07:39:46.860Z,88396.00
2023-04-18T07:40:46.757Z,88400.00
2023-04-18T07:41:46.761Z,88398.00
2023-04-18T07:42:46.766Z,88400.00
2023-04-18T07:43:46.814Z,88396.00
2023-04-18T07:44:46.788Z,88396.00
2023-04-18T07:45:46.788Z,88396.00
2023-04-18T07:46:46.907Z,88394.00
2023-04-18T07:47:46.793Z,88394.00
2023-04-18T07:48:46.756Z,88394.00
2023-04-18T07:49:46.762Z,88396.00
2023-04-18T07:50:46.744Z,88398.00
2023-04-18T07:51:46.727Z,88398.00
2023-04-18T07:52:46.739Z,88398.00
2023-04-18T07:53:46.771Z,88398.00
2023-04-18T07:54:46.719Z,88400.00
2023-04-18T07:55:46.764Z,88400.00
2023-04-18T07:56:46.721Z,88400.00
2023-04-18T07:57:47.590Z,88402.00
2023-04-18T07:58:46.596Z,88400.00
2023-04-18T07:59:46.599Z,88396.00
2023-04-18T08:00:46.598Z,88400.00
2023-04-18T08:01:46.552Z,88398.00
2023-04-18T08:02:46.684Z,88400.00
2023-04-18T08:03:46.692Z,88398.00
2023-04-18T08:04:46.714Z,88400.00
2023-04-18T08:05:46.543Z,88400.00
2023-04-18T08:06:46.474Z,88402.00
2023-04-18T08:07:46.460Z,88400.00
2023-04-18T08:08:46.474Z,88402.00
2023-04-18T08:09:46.444Z,88402.00
2023-04-18T08:10:46.391Z,88400.00
2023-04-18T08:11:46.380Z,88400.00
2023-04-18T08:12:46.360Z,88400.00
2023-04-18T08:13:46.375Z,88402.00
2023-04-18T08:14:46.337Z,88398.00
2023-04-18T08:15:46.346Z,88398.00
2023-04-18T08:16:46.781Z,88396.00
2023-04-18T08:17:46.310Z,88396.00
2023-04-18T08:18:46.251Z,88398.00
2023-04-18T08:19:46.301Z,88394.00
2023-04-18T08:20:46.205Z,88396.00
2023-04-18T08:21:46.191Z,88394.00
2023-04-18T08:23:02.267Z,88394.00
2023-04-18T08:23:47.151Z,88396.00
2023-04-18T08:25:01.096Z,88396.00
2023-04-18T08:25:47.099Z,88394.00
2023-04-18T08:26:46.107Z,88394.00
2023-04-18T08:27:46.057Z,88396.00
2023-04-18T08:28:46.734Z,88400.00
2023-04-18T08:29:46.022Z,88396.00
2023-04-18T08:30:46.000Z,88400.00
2023-04-18T08:31:47.083Z,88398.00
2023-04-18T08:32:46.048Z,88394.00
2023-04-18T08:33:45.946Z,88394.00
2023-04-18T08:34:45.905Z,88396.00
2023-04-18T08:35:45.880Z,88392.00
2023-04-18T08:36:45.867Z,88394.00
2023-04-18T08:37:45.851Z,88392.00
2023-04-18T08:38:45.869Z,88390.00
2023-04-18T08:39:45.809Z,88388.00
2023-04-18T08:40:45.782Z,88390.00
2023-04-18T08:41:45.753Z,88390.00
2023-04-18T08:42:45.729Z,88392.00
2023-04-18T08:43:45.689Z,88392.00
2023-04-18T08:44:45.671Z,88390.00
2023-04-18T08:45:45.684Z,88396.00
2023-04-18T08:46:45.628Z,88396.00
2023-04-18T08:47:45.604Z,88398.00
2023-04-18T08:48:45.561Z,88398.00
2023-04-18T08:49:45.561Z,88400.00
2023-04-18T08:50:45.514Z,88398.00
2023-04-18T08:51:45.481Z,88400.00
2023-04-18T08:52:45.493Z,88398.00
2023-04-18T08:53:45.427Z,88398.00
2023-04-18T08:54:45.383Z,88398.00
2023-04-18T08:55:45.371Z,88400.00
2023-04-18T08:56:45.344Z,88400.00
2023-04-18T08:57:45.430Z,88394.00
2023-04-18T08:58:45.345Z,88394.00
2023-04-18T08:59:46.349Z,88398.00
2023-04-18T09:00:45.257Z,88398.00
2023-04-18T09:01:45.243Z,88396.00
2023-04-18T09:02:45.379Z,88394.00
2023-04-18T09:03:45.198Z,88396.00
2023-04-18T09:04:45.131Z,88396.00
2023-04-18T09:05:45.096Z,88394.00
2023-04-18T09:06:45.124Z,88392.00
2023-04-18T09:07:45.015Z,88396.00
2023-04-18T09:08:45.033Z,88396.00
2023-04-18T09:09:44.981Z,88396.00
2023-04-18T09:10:46.778Z,88390.00
2023-04-18T09:11:44.925Z,88390.00
2023-04-18T09:12:44.893Z,88392.00
2023-04-18T09:13:44.938Z,88394.00
2023-04-18T09:14:44.843Z,88390.00
2023-04-18T09:15:44.841Z,88390.00
2023-04-18T09:16:44.898Z,88390.00
2023-04-18T09:17:44.862Z,88392.00
2023-04-18T09:18:44.791Z,88390.00
2023-04-18T09:19:44.849Z,88390.00
2023-04-18T09:20:44.906Z,88390.00
2023-04-18T09:21:44.684Z,88390.00
2023-04-18T09:22:44.623Z,88390.00
2023-04-18T09:23:44.663Z,88392.00
2023-04-18T09:24:44.634Z,88388.00
2023-04-18T09:25:45.358Z,88388.00
2023-04-18T09:26:44.519Z,88386.00
2023-04-18T09:27:44.522Z,88390.00
2023-04-18T09:28:44.479Z,88388.00
2023-04-18T09:29:44.444Z,88388.00
2023-04-18T09:30:44.466Z,88386.00
2023-04-18T09:31:44.397Z,88388.00
2023-04-18T09:32:44.624Z,88394.00
2023-04-18T09:33:44.331Z,88394.00
2023-04-18T09:34:44.305Z,88388.00
2023-04-18T09:35:44.304Z,88388.00
2023-04-18T09:36:44.304Z,88388.00
2023-04-18T09:37:45.040Z,88386.00
2023-04-18T09:38:44.216Z,88382.00
2023-04-18T09:39:44.184Z,88384.00
2023-04-18T09:40:44.221Z,88384.00
2023-04-18T09:41:44.151Z,88382.00
2023-04-18T09:42:44.089Z,88382.00
2023-04-18T09:43:44.065Z,88382.00
2023-04-18T09:44:44.045Z,88380.00
2023-04-18T09:45:44.252Z,88386.00
2023-04-18T09:46:46.844Z,88384.00
2023-04-18T09:47:44.025Z,88382.00
2023-04-18T09:48:43.955Z,88384.00
2023-04-18T09:49:43.926Z,88386.00
2023-04-18T09:50:43.932Z,88384.00
2023-04-18T09:51:43.886Z,88380.00
2023-04-18T09:52:43.854Z,88384.00
2023-04-18T09:53:43.840Z,88384.00
2023-04-18T09:54:43.832Z,88384.00
2023-04-18T09:55:43.855Z,88384.00
2023-04-18T09:56:43.939Z,88382.00
2023-04-18T09:57:43.858Z,88384.00
2023-04-18T09:58:43.722Z,88382.00
2023-04-18T09:59:43.694Z,88380.00
2023-04-18T10:00:46.280Z,88380.00
2023-04-18T10:01:43.701Z,88380.00
2023-04-18T10:02:43.732Z,88380.00
2023-04-18T10:03:43.665Z,88378.00
2023-04-18T10:04:43.715Z,88382.00
2023-04-18T10:05:43.606Z,88380.00
2023-04-18T10:06:43.546Z,88386.00
2023-04-18T10:07:43.537Z,88386.00
2023-04-18T10:10:02.515Z,88384.00
2023-04-18T10:11:02.512Z,88388.00
2023-04-18T10:12:02.521Z,88388.00
2023-04-18T10:13:02.542Z,88390.00
2023-04-18T10:14:02.530Z,88390.00
2023-04-18T10:15:02.555Z,88394.00
2023-04-18T10:16:02.656Z,88388.00
2023-04-18T10:17:02.580Z,88386.00
2023-04-18T10:18:05.017Z,88384.00
2023-04-18T10:19:02.583Z,88382.00
2023-04-18T10:20:02.619Z,88380.00
2023-04-18T10:21:02.626Z,88380.00
2023-04-18T10:22:02.638Z,88378.00
2023-04-18T10:23:02.620Z,88376.00
2023-04-18T10:24:02.626Z,88378.00
2023-04-18T10:25:02.643Z,88376.00
2023-04-18T10:26:02.766Z,88374.00
2023-04-18T10:27:02.667Z,88376.00
2023-04-18T10:28:02.672Z,88376.00
2023-04-18T10:29:02.658Z,88374.00
2023-04-18T10:30:02.666Z,88376.00
2023-04-18T10:31:02.741Z,88378.00
2023-04-18T10:32:02.691Z,88376.00
2023-04-18T10:33:02.710Z,88376.00
2023-04-18T10:34:17.733Z,88374.00
2023-04-18T10:35:03.706Z,88374.00
2023-04-18T10:36:03.169Z,88372.00
2023-04-18T10:37:02.776Z,88372.00
2023-04-18T10:38:02.751Z,88374.00
2023-04-18T10:39:02.737Z,88372.00
2023-04-18T10:40:02.752Z,88368.00
2023-04-18T10:41:02.724Z,88368.00
2023-04-18T10:42:02.740Z,88366.00
2023-04-18T10:43:02.828Z,88366.00
2023-04-18T10:44:02.862Z,88366.00
2023-04-18T10:45:02.864Z,88366.00
2023-04-18T10:46:02.866Z,88365.00
2023-04-18T10:47:02.909Z,88365.00
2023-04-18T10:48:02.883Z,88365.00
2023-04-18T10:49:02.893Z,88368.00
2023-04-18T10:50:05.956Z,88366.00
2023-04-18T10:51:02.874Z,88363.00
2023-04-18T10:52:02.862Z,88365.00
2023-04-18T10:53:02.869Z,88363.00
2023-04-18T10:54:02.861Z,88363.00
2023-04-18T10:55:02.849Z,88359.00
2023-04-18T10:56:02.851Z,88359.00
2023-04-18T10:57:02.850Z,88357.00
2023-04-18T10:58:02.848Z,88355.00
2023-04-18T10:59:02.842Z,88359.00
2023-04-18T11:00:02.820Z,88353.00
2023-04-18T11:01:02.868Z,88355.00
2023-04-18T11:02:02.825Z,88353.00
2023-04-18T11:03:03.141Z,88353.00
2023-04-18T11:04:02.887Z,88351.00
2023-04-18T11:05:03.031Z,88353.00
2023-04-18T11:06:02.915Z,88351.00
2023-04-18T11:07:02.813Z,88349.00
2023-04-18T11:08:02.762Z,88349.00
2023-04-18T11:09:02.808Z,88347.00
2023-04-18T11:10:02.773Z,88345.00
2023-04-18T11:11:02.782Z,88345.00
2023-04-18T11:12:02.746Z,88343.00
2023-04-18T11:13:02.815Z,88341.00
2023-04-18T11:14:02.892Z,88341.00
2023-04-18T11:15:02.913Z,88339.00
2023-04-18T11:16:03.030Z,88339.00
2023-04-18T11:17:03.021Z,88339.00
2023-04-18T11:18:03.141Z,88339.00
2023-04-18T11:19:03.170Z,88339.00
2023-04-18T11:20:03.170Z,88335.00
2023-04-18T11:21:03.234Z,88333.00
2023-04-18T11:22:03.267Z,88333.00
2023-04-18T11:23:03.367Z,88333.00
2023-04-18T11:24:03.377Z,88333.00
2023-04-18T11:25:03.373Z,88333.00
2023-04-18T11:26:03.387Z,88333.00
2023-04-18T11:27:03.343Z,88335.00
2023-04-18T11:28:03.370Z,88337.00
2023-04-18T11:29:03.343Z,88335.00
2023-04-18T11:30:03.429Z,88339.00
2023-04-18T11:31:03.325Z,88337.00
2023-04-18T11:32:03.415Z,88339.00
2023-04-18T11:33:03.332Z,88337.00
2023-04-18T11:34:03.322Z,88339.00
2023-04-18T11:35:03.300Z,88339.00
2023-04-18T11:36:03.299Z,88337.00
2023-04-18T11:37:03.293Z,88339.00
2023-04-18T11:38:03.325Z,88335.00
2023-04-18T11:39:03.392Z,88333.00
2023-04-18T11:40:03.440Z,88333.00
2023-04-18T11:41:03.482Z,88335.00
2023-04-18T11:42:03.546Z,88333.00
2023-04-18T11:43:03.544Z,88333.00
2023-04-18T11:44:03.522Z,88333.00
2023-04-18T11:45:03.524Z,88337.00
2023-04-18T11:46:03.549Z,88335.00